Flight Track Log - Related Links

Times and Time Zones

All times are in EDT time to prevent confusion due to time zone crossing. See the VNR106 flight status page for this flight to view local times or setup timezone preferences in your user account.

Time Position Orientation Groundspeed Altitude Reporting Facility
EDT Latitude Longitude Course Direction KTS MPH feet Rate Location/Type
Sat 04:30:55 PM 25.6422 -80.4153 137° Southeast 137 158 1,000  Level Miami Center
Sat 04:32:32 PM 25.5956 -80.3678 257° West 192 221 3,700 1,899 Climbing Miami Center
Sat 04:33:14 PM 25.5883 -80.4022 272° West 203 234 5,400 1,353 Climbing Miami Center
Sat 04:34:14 PM 25.5908 -80.4736 239° Southwest 257 296 6,000 800 Climbing Miami Center
Sat 04:35:14 PM 25.5622 -80.5256 215° Southwest 229 264 7,000 1,500 Climbing Miami Center
Sat 04:36:14 PM 25.5069 -80.5678 210° Southwest 216 249 9,000 1,500 Climbing Miami Center
Sat 04:37:14 PM 25.4561 -80.6008 209° Southwest 223 257 10,000 500 Climbing Miami Center
Sat 04:38:14 PM 25.3922 -80.6403 249° West 242 278 10,000  Level Miami Center
Sat 04:39:14 PM 25.3675 -80.7106 272° West 242 278 10,000  Level Miami Center
Sat 04:40:14 PM 25.3694 -80.7911 270° West 239 275 10,000  Level Miami Center
Sat 04:41:14 PM 25.3694 -80.8739 260° West 259 298 10,000 -400 Level Miami Center
Sat 04:42:14 PM 25.3569 -80.9517 259° West 264 304 9,200 -950 Descending Miami Center
Sat 04:43:14 PM 25.3444 -81.0247 237° Southwest 258 297 8,100 -900 Descending Miami Center
Sat 04:44:14 PM 25.3092 -81.0856 206° Southwest 248 285 7,400 -500 Descending Miami Center
Sat 04:45:14 PM 25.2519 -81.1158 193° South 226 260 7,100 -150 Descending Miami Center
Sat 04:46:14 PM 25.1825 -81.1339 188° South 226 260 7,100 -50 Level Miami Center
Sat 04:47:14 PM 25.1133 -81.1453 203° Southwest 242 278 7,000 -50 Descending Miami Center
Sat 04:48:14 PM 25.0497 -81.1753 232° Southwest 250 288 7,000  Level Miami Center
Sat 04:49:14 PM 25.0061 -81.2378 235° Southwest 250 288 7,000 50 Level Miami Center
Sat 04:50:14 PM 24.9667 -81.3006 238° Southwest 250 288 7,100  Climbing Miami Center
Sat 04:51:14 PM 24.9314 -81.3633 235° Southwest 250 288 7,000 -650 Descending Miami Center
Sat 04:52:14 PM 24.9006 -81.4128 238° Southwest 231 266 5,800 -1,400 Descending Miami Center
Sat 04:53:14 PM 24.8719 -81.4642 239° Southwest 213 245 4,200 -1,600 Descending Miami Center
Sat 04:54:14 PM 24.8431 -81.5181 262° West 207 238 2,600 -800 Descending Miami Center
Sat 04:55:14 PM 24.8347 -81.5797 251° West 202 232 2,600 -400 Level Miami Center
Sat 04:56:14 PM 24.8161 -81.6406 245° Southwest 207 238 1,800 -500 Descending Miami Center
Sat 04:57:14 PM 24.7936 -81.6947 72° East 202 232 1,600 -200 Descending Miami Center
Sat 05:04:15 PM 24.9470 -81.1790 183° South  Level FlightAware Approximate
Sat 05:05:15 PM 24.9208 -81.1804 258° West  Level FlightAware Approximate
Sat 05:06:15 PM 24.9057 -81.2560 258° West  Level FlightAware Approximate
Sat 05:07:15 PM 24.8905 -81.3315 258° West  Level FlightAware Approximate
Sat 05:08:15 PM 24.8753 -81.4071 258° West  Level FlightAware Approximate

Login

Don't have an account? Register now (free) for customized features, flight alerts, and more!